WetterOnline ( https://www.wetteronline.de )

Wetter aktuell Klippeneck

Aktuelles Wetter: Klippeneck (975m)

6-stündlich | Neueste Meldungen
Ortszeit Temperatur Wetter
Do, 29.09. 2:00 5.0° C bewölkt
Mi, 28.09. 20:00 4.8° C Regen
Mi, 28.09. 14:00 5.3° C Regen
Mi, 28.09. 8:00 5.9° C Sprühregen
Mi, 28.09. 2:00 5.3° C leichter Regen
Di, 27.09. 20:00 5.1° C leicht bewölkt
Di, 27.09. 14:00 5.7° C bedeckt
Di, 27.09. 8:00 4.0° C leichter Regen
Ortszeit Temperatur Wetter
Do, 29.09. 6:00 4.7° C bedeckt
Do, 29.09. 5:50 4.7° C bedeckt
Do, 29.09. 5:40 4.6° C bedeckt
Do, 29.09. 5:30 4.7° C bewölkt
Do, 29.09. 5:20 4.7° C bewölkt
Do, 29.09. 5:10 4.7° C bewölkt
Do, 29.09. 5:00 4.7° C Regen
Do, 29.09. 4:30 4.7° C Sprühregen
Do, 29.09. 4:00 4.7° C leichter Regen
Do, 29.09. 3:30 4.9° C leichter Regen
Do, 29.09. 3:00 4.9° C leichter Regen
Ortszeit Relative Feuchte Sichtweite
Do, 29.09. 2:00 97% 13 km
Mi, 28.09. 20:00 93% >70 km
Mi, 28.09. 14:00 97% 2.1 km
Mi, 28.09. 8:00 99% 0.2 km
Mi, 28.09. 2:00 97% 7 km
Di, 27.09. 20:00 95% 50 km
Di, 27.09. 14:00 90% 65 km
Di, 27.09. 8:00 99% 0.3 km
Ortszeit Relative Feuchte Sichtweite
Do, 29.09. 6:00 95% 15 km
Do, 29.09. 5:50 95% -
Do, 29.09. 5:40 95% -
Do, 29.09. 5:30 95% 35 km
Do, 29.09. 5:20 95% -
Do, 29.09. 5:10 94% -
Do, 29.09. 5:00 96% 18 km
Do, 29.09. 4:30 97% 10 km
Do, 29.09. 4:00 97% 9 km
Do, 29.09. 3:30 97% 1.5 km
Do, 29.09. 3:00 98% 1.7 km
Ortszeit Niederschlagsmenge Niederschlagsart
Do, 29.09. 2:00 0.0 l/m2 in 6 Std. -
Mi, 28.09. 20:00 7 l/m2 in 12 Std. Regen
Mi, 28.09. 14:00 3 l/m2 in 6 Std. Regen
Mi, 28.09. 8:00 3 l/m2 in 12 Std. Regen
Mi, 28.09. 2:00 0.9 l/m2 in 6 Std. Regen
Di, 27.09. 20:00 6 l/m2 in 12 Std. Regen
Di, 27.09. 14:00 2 l/m2 in 6 Std. Regen
Di, 27.09. 8:00 8 l/m2 in 12 Std. Regen
Ortszeit Niederschlagsmenge Niederschlagsart
Do, 29.09. 6:00 0.0 l/m2 in 1 Std. -
Do, 29.09. 5:50 keine Meldung -
Do, 29.09. 5:40 keine Meldung -
Do, 29.09. 5:30 0.0 l/m2 in 1 Std. -
Do, 29.09. 5:20 keine Meldung -
Do, 29.09. 5:10 keine Meldung -
Do, 29.09. 5:00 <0.05 l/m2 in 1 Std. Regen
Do, 29.09. 4:30 <0.05 l/m2 in 1 Std. -
Do, 29.09. 4:00 0.3 l/m2 in 1 Std. Regen
Do, 29.09. 3:30 <0.05 l/m2 in 1 Std. -
Do, 29.09. 3:00 0.1 l/m2 in 1 Std. Regen
Ortszeit Stärke Spitze Richtung
km/h Bft. km/h Grad Sektor
Do, 29.09. 2:00 7 2 22 180° S
Mi, 28.09. 20:00 9 2 26 190° S
Mi, 28.09. 14:00 13 3 33 290° W
Mi, 28.09. 8:00 20 4 56 240° SW
Mi, 28.09. 2:00 25 4 47 230° SW
Di, 27.09. 20:00 25 4 50 240° SW
Di, 27.09. 14:00 26 4 48 250° W
Di, 27.09. 8:00 19 3 54 260° W
Ortszeit Stärke Spitze Richtung
km/h Bft. km/h Grad Sektor
Do, 29.09. 6:00 2 1 6 200° S
Do, 29.09. 5:50 2 1 - 200° S
Do, 29.09. 5:40 2 1 - 280° W
Do, 29.09. 5:30 4 1 7 190° S
Do, 29.09. 5:20 4 1 - 190° S
Do, 29.09. 5:10 4 1 - 200° S
Do, 29.09. 5:00 4 1 7 180° S
Do, 29.09. 4:30 4 1 7 210° SW
Do, 29.09. 4:00 6 1 13 200° S
Do, 29.09. 3:30 7 2 14 210° SW
Do, 29.09. 3:00 7 2 14 190° S
Ortszeit Untergrenze Bedeckung Gattung
total tief tief mittel hoch
Do, 29.09. 2:00 60 m 7/8 7/8 - - -
Mi, 28.09. 20:00 840 m 7/8 7/8 - - -
Mi, 28.09. 14:00 <30 m 8/8 0/8 - - -
Mi, 28.09. 8:00 <30 m 7/8 0/8 - - -
Mi, 28.09. 2:00 <30 m 7/8 0/8 - - -
Di, 27.09. 20:00 540 m 4/8 4/8 - - -
Di, 27.09. 14:00 330 m 8/8 8/8 - - -
Di, 27.09. 8:00 30 m 8/8 8/8 - - -
Ortszeit Bedeckungsgrad in Achtel und Wolkenuntergrenze
Do, 29.09. 6:00 1(90m) 8(630m)
Do, 29.09. 5:50 1(90m) 8(630m)
Do, 29.09. 5:40 8
Do, 29.09. 5:30 4(240m) 6(360m) 7(630m)
Do, 29.09. 5:20 4(240m) 6(360m) 7(630m)
Do, 29.09. 5:10 7
Do, 29.09. 5:00 1(60m) 5(360m) 8(570m)
Do, 29.09. 4:30 2(60m) 4(330m) 8(600m)
Do, 29.09. 4:00 7(90m) 7(900m) 7(2100m)
Do, 29.09. 3:30 7(30m) 7(150m) 8(300m)
Do, 29.09. 3:00 7(30m) 7(300m)
Ortszeit Stationsdruck (hPa) Tendenz (hPa in 3 Std.)
Do, 29.09. 2:00 891 - 0,5
Mi, 28.09. 20:00 890 + 0,6
Mi, 28.09. 14:00 890 + 0,4
Mi, 28.09. 8:00 887 - 0,5
Mi, 28.09. 2:00 891 - 2,0
Di, 27.09. 20:00 892 + 0,1
Di, 27.09. 14:00 892 - 0,5
Di, 27.09. 8:00 891 + 1,3
Ortszeit Stationsdruck (hPa) Tendenz (hPa in 3 Std.)
Do, 29.09. 6:00 890 - 0,7
Do, 29.09. 5:50 890 keine Meldung
Do, 29.09. 5:40 890 keine Meldung
Do, 29.09. 5:30 890 - 0,7
Do, 29.09. 5:20 890 keine Meldung
Do, 29.09. 5:10 890 keine Meldung
Do, 29.09. 5:00 890 - 0,5
Do, 29.09. 4:30 890 - 0,5
Do, 29.09. 4:00 890 - 0,7
Do, 29.09. 3:30 891 - 0,5
Do, 29.09. 3:00 891 - 0,4
Ortszeit Schneehöhe (cm)
Do, 29.09. 2:00 0
Mi, 28.09. 20:00 0
Mi, 28.09. 14:00 0
Mi, 28.09. 8:00 0
Mi, 28.09. 2:00 0
Di, 27.09. 20:00 0
Di, 27.09. 14:00 0
Di, 27.09. 8:00 0
Ortszeit Schneehöhe (cm)
Do, 29.09. 6:00 0
Do, 29.09. 5:50 0
Do, 29.09. 5:40 0
Do, 29.09. 5:30 0
Do, 29.09. 5:20 0
Do, 29.09. 5:10 0
Do, 29.09. 5:00 0
Do, 29.09. 4:30 0
Do, 29.09. 4:00 0
Do, 29.09. 3:30 0
Do, 29.09. 3:00 0
Link zu dieser Seite / Seite empfehlen

Das Wetter in ...